PWSweather.com
Personal Weather Stations
Station Observations
KMAMEDFI2
Medfield, MA 02052

Medfield, MA 02052

Lat: 42.1900822, Lon: -71.3296889

Elevation: 138

Station Type: Rainwise WS MK-III

http://www.medfieldweather.com

High Low Average
Temperature 44.9°F7.2°C 14.0°F-10.0°C 32.0°F0.0°C
Dew Point 37.8°F3.2°C 12.3°F-10.9°C 27.0°F-2.8°C
Winds 9.2 mph 14.8 kmh Calm Calm 2.0 mph S3.2 kmh S
Wind Gusts 17.3 mph27.8 kmh -- 4.0 mph6.4 kmh
Humidity 93% 65% 82%
Pressure 30.21 in1023.0 mb 29.90 in1012.5 mb -
Precipitation 0.00 in0.0 mm - -
Hour Temp Dew Point Humidity Winds Wind Gusts Pressure Precip Precip Rate Daily Precip Total
12:00 AM 21.3°F-5.9°C 16.1°F-8.8°C 80% Calm Calm -- 30.21 in1023.0 mb - 0.00 in0.0 mm 0.00 in0.0 mm
12:10 AM 21.5°F-5.8°C 16.0°F-8.9°C 79% Calm Calm -- 30.20 in1022.7 mb - 0.00 in0.0 mm 0.00 in0.0 mm
12:20 AM 21.3°F-5.9°C 16.1°F-8.8°C 80% Calm Calm -- 30.21 in1023.0 mb - 0.00 in0.0 mm 0.00 in0.0 mm
12:30 AM 20.8°F-6.2°C 16.4°F-8.7°C 83% Calm Calm -- 30.21 in1023.0 mb - 0.00 in0.0 mm 0.00 in0.0 mm
12:40 AM 20.8°F-6.2°C 17.0°F-8.3°C 85% Calm Calm -- 30.21 in1023.0 mb - 0.00 in0.0 mm 0.00 in0.0 mm
12:50 AM 20.6°F-6.3°C 16.8°F-8.4°C 85% Calm Calm -- 30.21 in1023.0 mb - 0.00 in0.0 mm 0.00 in0.0 mm
01:00 AM 21.0°F-6.1°C 17.7°F-7.9°C 87% Calm Calm -- 30.21 in1023.0 mb - 0.00 in0.0 mm 0.00 in0.0 mm
01:10 AM 21.5°F-5.8°C 18.3°F-7.6°C 87% Calm Calm -- 30.20 in1022.7 mb - 0.00 in0.0 mm 0.00 in0.0 mm
01:20 AM 21.6°F-5.8°C 18.4°F-7.6°C 87% Calm Calm -- 30.20 in1022.7 mb - 0.00 in0.0 mm 0.00 in0.0 mm
01:30 AM 21.5°F-5.8°C 18.2°F-7.7°C 87% Calm Calm -- 30.20 in1022.7 mb - 0.00 in0.0 mm 0.00 in0.0 mm
01:40 AM 21.5°F-5.8°C 18.7°F-7.4°C 89% Calm Calm -- 30.20 in1022.7 mb - 0.00 in0.0 mm 0.00 in0.0 mm
01:50 AM 21.7°F-5.7°C 19.0°F-7.2°C 89% Calm Calm -- 30.20 in1022.7 mb - 0.00 in0.0 mm 0.00 in0.0 mm
02:00 AM 21.8°F-5.7°C 19.3°F-7.1°C 90% Calm Calm -- 30.20 in1022.7 mb - 0.00 in0.0 mm 0.00 in0.0 mm
02:10 AM 22.0°F-5.6°C 19.5°F-6.9°C 90% Calm Calm -- 30.20 in1022.7 mb - 0.00 in0.0 mm 0.00 in0.0 mm
02:20 AM 22.2°F-5.4°C 19.2°F-7.1°C 88% Calm Calm -- 30.20 in1022.7 mb - 0.00 in0.0 mm 0.00 in0.0 mm
02:30 AM 22.3°F-5.4°C 18.7°F-7.4°C 86% Calm Calm -- 30.20 in1022.7 mb - 0.00 in0.0 mm 0.00 in0.0 mm
02:40 AM 22.3°F-5.4°C 18.2°F-7.7°C 84% Calm Calm -- 30.20 in1022.7 mb - 0.00 in0.0 mm 0.00 in0.0 mm
02:50 AM 22.4°F-5.3°C 18.0°F-7.8°C 83% Calm Calm -- 30.20 in1022.7 mb - 0.00 in0.0 mm 0.00 in0.0 mm
03:00 AM 22.4°F-5.3°C 18.3°F-7.6°C 84% Calm Calm -- 30.20 in1022.7 mb - 0.00 in0.0 mm 0.00 in0.0 mm
03:10 AM 22.0°F-5.6°C 17.9°F-7.8°C 84% Calm Calm -- 30.20 in1022.7 mb - 0.00 in0.0 mm 0.00 in0.0 mm
03:20 AM 21.4°F-5.9°C 17.6°F-8.0°C 85% Calm Calm -- 30.21 in1023.0 mb - 0.00 in0.0 mm 0.00 in0.0 mm
03:30 AM 20.5°F-6.4°C 17.0°F-8.3°C 86% Calm Calm -- 30.21 in1023.0 mb - 0.00 in0.0 mm 0.00 in0.0 mm
03:40 AM 19.5°F-6.9°C 16.5°F-8.6°C 88% Calm Calm -- 30.21 in1023.0 mb - 0.00 in0.0 mm 0.00 in0.0 mm
03:50 AM 18.4°F-7.6°C 16.2°F-8.8°C 91% Calm Calm -- 30.20 in1022.7 mb - 0.00 in0.0 mm 0.00 in0.0 mm
04:00 AM 18.4°F-7.6°C 16.7°F-8.5°C 93% Calm Calm -- 30.20 in1022.7 mb - 0.00 in0.0 mm 0.00 in0.0 mm
04:10 AM 18.5°F-7.5°C 16.8°F-8.4°C 93% Calm Calm -- 30.20 in1022.7 mb - 0.00 in0.0 mm 0.00 in0.0 mm
04:20 AM 17.8°F-7.9°C 16.1°F-8.8°C 93% Calm Calm -- 30.19 in1022.4 mb - 0.00 in0.0 mm 0.00 in0.0 mm
04:30 AM 16.8°F-8.4°C 15.1°F-9.4°C 93% Calm Calm -- 30.18 in1022.0 mb - 0.00 in0.0 mm 0.00 in0.0 mm
04:40 AM 16.5°F-8.6°C 14.8°F-9.6°C 93% Calm Calm -- 30.18 in1022.0 mb - 0.00 in0.0 mm 0.00 in0.0 mm
04:50 AM 16.9°F-8.4°C 15.2°F-9.3°C 93% Calm Calm -- 30.17 in1021.7 mb - 0.00 in0.0 mm 0.00 in0.0 mm
05:00 AM 15.9°F-8.9°C 14.2°F-9.9°C 93% Calm Calm -- 30.18 in1022.0 mb - 0.00 in0.0 mm 0.00 in0.0 mm
05:10 AM 16.2°F-8.8°C 14.5°F-9.7°C 93% Calm Calm -- 30.18 in1022.0 mb - 0.00 in0.0 mm 0.00 in0.0 mm
05:20 AM 16.4°F-8.7°C 14.7°F-9.6°C 93% Calm Calm -- 30.17 in1021.7 mb - 0.00 in0.0 mm 0.00 in0.0 mm
05:30 AM 16.0°F-8.9°C 14.3°F-9.8°C 93% Calm Calm -- 30.17 in1021.7 mb - 0.00 in0.0 mm 0.00 in0.0 mm
05:40 AM 15.8°F-9.0°C 14.2°F-9.9°C 93% Calm Calm -- 30.16 in1021.3 mb - 0.00 in0.0 mm 0.00 in0.0 mm
05:50 AM 15.4°F-9.2°C 13.7°F-10.2°C 93% Calm Calm -- 30.16 in1021.3 mb - 0.00 in0.0 mm 0.00 in0.0 mm
06:00 AM 15.2°F-9.3°C 13.5°F-10.3°C 93% Calm Calm -- 30.16 in1021.3 mb - 0.00 in0.0 mm 0.00 in0.0 mm
06:10 AM 15.0°F-9.4°C 13.3°F-10.4°C 93% Calm Calm -- 30.16 in1021.3 mb - 0.00 in0.0 mm 0.00 in0.0 mm
06:20 AM 15.3°F-9.3°C 13.7°F-10.2°C 93% Calm Calm -- 30.15 in1021.0 mb - 0.00 in0.0 mm 0.00 in0.0 mm
06:30 AM 15.2°F-9.3°C 13.6°F-10.2°C 93% Calm Calm -- 30.14 in1020.7 mb - 0.00 in0.0 mm 0.00 in0.0 mm
06:40 AM 14.7°F-9.6°C 13.0°F-10.6°C 93% Calm Calm -- 30.14 in1020.7 mb - 0.00 in0.0 mm 0.00 in0.0 mm
06:50 AM 14.2°F-9.9°C 12.6°F-10.8°C 93% Calm Calm -- 30.14 in1020.7 mb - 0.00 in0.0 mm 0.00 in0.0 mm
07:00 AM 14.2°F-9.9°C 12.5°F-10.8°C 93% Calm Calm -- 30.14 in1020.7 mb - 0.00 in0.0 mm 0.00 in0.0 mm
07:10 AM 14.9°F-9.5°C 13.2°F-10.4°C 93% Calm Calm -- 30.14 in1020.7 mb - 0.00 in0.0 mm 0.00 in0.0 mm
07:20 AM 14.5°F-9.7°C 12.9°F-10.6°C 93% Calm Calm -- 30.14 in1020.7 mb - 0.00 in0.0 mm 0.00 in0.0 mm
07:30 AM 14.5°F-9.7°C 12.9°F-10.6°C 93% Calm Calm -- 30.14 in1020.7 mb - 0.00 in0.0 mm 0.00 in0.0 mm
07:40 AM 14.6°F-9.7°C 13.0°F-10.6°C 93% Calm Calm -- 30.14 in1020.7 mb - 0.00 in0.0 mm 0.00 in0.0 mm
07:50 AM 14.3°F-9.8°C 12.7°F-10.7°C 93% Calm Calm -- 30.14 in1020.7 mb - 0.00 in0.0 mm 0.00 in0.0 mm
08:00 AM 14.0°F-10.0°C 12.3°F-10.9°C 93% Calm Calm -- 30.13 in1020.3 mb - 0.00 in0.0 mm 0.00 in0.0 mm
08:10 AM 14.4°F-9.8°C 12.8°F-10.7°C 93% Calm Calm -- 30.13 in1020.3 mb - 0.00 in0.0 mm 0.00 in0.0 mm
08:20 AM 15.0°F-9.4°C 13.3°F-10.4°C 93% Calm Calm -- 30.13 in1020.3 mb - 0.00 in0.0 mm 0.00 in0.0 mm
08:30 AM 15.4°F-9.2°C 13.7°F-10.2°C 93% Calm Calm -- 30.13 in1020.3 mb - 0.00 in0.0 mm 0.00 in0.0 mm
08:40 AM 15.8°F-9.0°C 14.2°F-9.9°C 93% Calm Calm -- 30.12 in1020.0 mb - 0.00 in0.0 mm 0.00 in0.0 mm
08:50 AM 16.2°F-8.8°C 14.5°F-9.7°C 93% Calm Calm -- 30.12 in1020.0 mb - 0.00 in0.0 mm 0.00 in0.0 mm
09:00 AM 17.3°F-8.2°C 15.6°F-9.1°C 93% Calm Calm -- 30.11 in1019.6 mb - 0.00 in0.0 mm 0.00 in0.0 mm
09:10 AM 18.2°F-7.7°C 16.5°F-8.6°C 93% Calm Calm -- 30.11 in1019.6 mb - 0.00 in0.0 mm 0.00 in0.0 mm
09:20 AM 19.1°F-7.2°C 17.4°F-8.1°C 93% 1.2 mph SW1.9 kmh SW 2.3 mph3.7 kmh 30.12 in1020.0 mb - 0.00 in0.0 mm 0.00 in0.0 mm
09:30 AM 20.6°F-6.3°C 18.9°F-7.3°C 93% Calm Calm -- 30.11 in1019.6 mb - 0.00 in0.0 mm 0.00 in0.0 mm
09:40 AM 22.3°F-5.4°C 20.6°F-6.3°C 93% Calm Calm 1.2 mph1.9 kmh 30.10 in1019.3 mb - 0.00 in0.0 mm 0.00 in0.0 mm
09:50 AM 24.0°F-4.4°C 22.3°F-5.4°C 93% 2.3 mph SSE3.7 kmh SSE 2.3 mph3.7 kmh 30.10 in1019.3 mb - 0.00 in0.0 mm 0.00 in0.0 mm
10:00 AM 26.3°F-3.2°C 23.7°F-4.6°C 90% 1.2 mph SE1.9 kmh SE 2.3 mph3.7 kmh 30.10 in1019.3 mb - 0.00 in0.0 mm 0.00 in0.0 mm
10:10 AM 28.3°F-2.1°C 25.2°F-3.8°C 88% 2.3 mph SSE3.7 kmh SSE 3.5 mph5.6 kmh 30.09 in1019.0 mb - 0.00 in0.0 mm 0.00 in0.0 mm
10:20 AM 29.8°F-1.2°C 26.9°F-2.8°C 89% 2.3 mph SE3.7 kmh SE 5.8 mph9.3 kmh 30.09 in1019.0 mb - 0.00 in0.0 mm 0.00 in0.0 mm
10:30 AM 30.8°F-0.7°C 27.6°F-2.4°C 88% 3.5 mph SE5.6 kmh SE 5.8 mph9.3 kmh 30.09 in1019.0 mb - 0.00 in0.0 mm 0.00 in0.0 mm
10:40 AM 32.0°F0.0°C 28.3°F-2.1°C 86% 5.8 mph SE9.3 kmh SE 6.9 mph11.1 kmh 30.09 in1019.0 mb - 0.00 in0.0 mm 0.00 in0.0 mm
10:50 AM 32.3°F0.2°C 28.3°F-2.1°C 85% 3.5 mph SE5.6 kmh SE 5.8 mph9.3 kmh 30.09 in1019.0 mb - 0.00 in0.0 mm 0.00 in0.0 mm
11:00 AM 33.2°F0.7°C 29.2°F-1.6°C 85% 3.5 mph S5.6 kmh S 8.1 mph13.0 kmh 30.09 in1019.0 mb - 0.00 in0.0 mm 0.00 in0.0 mm
11:10 AM 34.7°F1.5°C 29.7°F-1.3°C 82% 3.5 mph SE5.6 kmh SE 10.4 mph16.7 kmh 30.08 in1018.6 mb - 0.00 in0.0 mm 0.00 in0.0 mm
11:20 AM 35.9°F2.2°C 30.3°F-0.9°C 80% 4.6 mph E7.4 kmh E 8.1 mph13.0 kmh 30.07 in1018.3 mb - 0.00 in0.0 mm 0.00 in0.0 mm
11:30 AM 37.2°F2.9°C 31.0°F-0.6°C 78% 3.5 mph ESE5.6 kmh ESE 5.8 mph9.3 kmh 30.07 in1018.3 mb - 0.00 in0.0 mm 0.00 in0.0 mm
11:40 AM 38.3°F3.5°C 32.0°F0.0°C 78% 3.5 mph SE5.6 kmh SE 2.3 mph3.7 kmh 30.06 in1017.9 mb - 0.00 in0.0 mm 0.00 in0.0 mm
11:50 AM 39.2°F4.0°C 32.0°F0.0°C 75% 6.9 mph ESE11.1 kmh ESE 13.8 mph22.2 kmh 30.05 in1017.6 mb - 0.00 in0.0 mm 0.00 in0.0 mm
12:00 PM 40.2°F4.6°C 32.2°F0.1°C 73% 5.8 mph SSE9.3 kmh SSE 8.1 mph13.0 kmh 30.05 in1017.6 mb - 0.00 in0.0 mm 0.00 in0.0 mm
12:10 PM 41.0°F5.0°C 32.6°F0.3°C 72% 5.8 mph SE9.3 kmh SE 8.1 mph13.0 kmh 30.06 in1017.9 mb - 0.00 in0.0 mm 0.00 in0.0 mm
12:20 PM 41.5°F5.3°C 33.2°F0.7°C 72% 4.6 mph SE7.4 kmh SE 9.2 mph14.8 kmh 30.05 in1017.6 mb - 0.00 in0.0 mm 0.00 in0.0 mm
12:30 PM 41.9°F5.5°C 32.9°F0.5°C 70% 5.8 mph SE9.3 kmh SE 9.2 mph14.8 kmh 30.05 in1017.6 mb - 0.00 in0.0 mm 0.00 in0.0 mm
12:40 PM 42.1°F5.6°C 33.1°F0.6°C 70% 5.8 mph SE9.3 kmh SE 10.4 mph16.7 kmh 30.05 in1017.6 mb - 0.00 in0.0 mm 0.00 in0.0 mm
12:50 PM 42.3°F5.7°C 33.2°F0.7°C 70% 5.8 mph SE9.3 kmh SE 8.1 mph13.0 kmh 30.05 in1017.6 mb - 0.00 in0.0 mm 0.00 in0.0 mm
01:00 PM 42.7°F5.9°C 33.3°F0.7°C 69% 5.8 mph S9.3 kmh S 8.1 mph13.0 kmh 30.04 in1017.3 mb - 0.00 in0.0 mm 0.00 in0.0 mm
01:10 PM 43.4°F6.3°C 33.6°F0.9°C 68% 5.8 mph SSW9.3 kmh SSW 17.3 mph27.8 kmh 30.03 in1016.9 mb - 0.00 in0.0 mm 0.00 in0.0 mm
01:20 PM 44.2°F6.8°C 33.2°F0.7°C 65% 6.9 mph SSE11.1 kmh SSE 13.8 mph22.2 kmh 30.02 in1016.6 mb - 0.00 in0.0 mm 0.00 in0.0 mm
01:30 PM 44.2°F6.8°C 33.9°F1.1°C 67% 5.8 mph SSE9.3 kmh SSE 10.4 mph16.7 kmh 30.01 in1016.3 mb - 0.00 in0.0 mm 0.00 in0.0 mm
01:40 PM 44.1°F6.7°C 34.2°F1.2°C 68% 5.8 mph S9.3 kmh S 5.8 mph9.3 kmh 30.01 in1016.3 mb - 0.00 in0.0 mm 0.00 in0.0 mm
01:50 PM 44.4°F6.9°C 34.5°F1.4°C 68% 5.8 mph SW9.3 kmh SW 8.1 mph13.0 kmh 30.01 in1016.3 mb - 0.00 in0.0 mm 0.00 in0.0 mm
02:00 PM 44.3°F6.8°C 34.4°F1.3°C 68% 5.8 mph SSE9.3 kmh SSE 9.2 mph14.8 kmh 30.01 in1016.3 mb - 0.00 in0.0 mm 0.00 in0.0 mm
02:10 PM 43.7°F6.5°C 34.2°F1.2°C 69% 9.2 mph SSE14.8 kmh SSE 15.0 mph24.1 kmh 30.01 in1016.3 mb - 0.00 in0.0 mm 0.00 in0.0 mm
02:20 PM 43.8°F6.6°C 35.0°F1.7°C 71% 9.2 mph SSE14.8 kmh SSE 13.8 mph22.2 kmh 30.01 in1016.3 mb - 0.00 in0.0 mm 0.00 in0.0 mm
02:30 PM 43.5°F6.4°C 34.7°F1.5°C 71% 4.6 mph SW7.4 kmh SW 9.2 mph14.8 kmh 30.01 in1016.3 mb - 0.00 in0.0 mm 0.00 in0.0 mm
02:40 PM 43.7°F6.5°C 35.6°F2.0°C 73% 3.5 mph SSE5.6 kmh SSE 8.1 mph13.0 kmh 30.01 in1016.3 mb - 0.00 in0.0 mm 0.00 in0.0 mm
02:50 PM 43.6°F6.4°C 36.5°F2.5°C 76% 3.5 mph SSE5.6 kmh SSE 5.8 mph9.3 kmh 30.01 in1016.3 mb - 0.00 in0.0 mm 0.00 in0.0 mm
03:00 PM 44.3°F6.8°C 37.5°F3.1°C 77% 6.9 mph SSW11.1 kmh SSW 11.5 mph18.5 kmh 30.00 in1015.9 mb - 0.00 in0.0 mm 0.00 in0.0 mm
03:10 PM 44.2°F6.8°C 37.8°F3.2°C 78% 4.6 mph S7.4 kmh S 9.2 mph14.8 kmh 29.99 in1015.6 mb - 0.00 in0.0 mm 0.00 in0.0 mm
03:20 PM 44.8°F7.1°C 37.4°F3.0°C 75% 3.5 mph SE5.6 kmh SE 3.5 mph5.6 kmh 29.98 in1015.2 mb - 0.00 in0.0 mm 0.00 in0.0 mm
03:30 PM 44.9°F7.2°C 37.1°F2.8°C 74% 4.6 mph SE7.4 kmh SE 8.1 mph13.0 kmh 29.97 in1014.9 mb - 0.00 in0.0 mm 0.00 in0.0 mm
03:40 PM 44.8°F7.1°C 36.7°F2.6°C 73% 2.3 mph NW3.7 kmh NW 2.3 mph3.7 kmh 29.96 in1014.6 mb - 0.00 in0.0 mm 0.00 in0.0 mm
03:50 PM 44.3°F6.8°C 36.5°F2.5°C 74% 4.6 mph SE7.4 kmh SE 8.1 mph13.0 kmh 29.94 in1013.9 mb - 0.00 in0.0 mm 0.00 in0.0 mm
04:00 PM 43.8°F6.6°C 36.4°F2.4°C 75% 3.5 mph E5.6 kmh E 5.8 mph9.3 kmh 29.94 in1013.9 mb - 0.00 in0.0 mm 0.00 in0.0 mm
04:10 PM 43.6°F6.4°C 36.5°F2.5°C 76% 2.3 mph S3.7 kmh S 2.3 mph3.7 kmh 29.94 in1013.9 mb - 0.00 in0.0 mm 0.00 in0.0 mm
04:20 PM 43.5°F6.4°C 36.4°F2.4°C 76% 3.5 mph SE5.6 kmh SE 13.8 mph22.2 kmh 29.94 in1013.9 mb - 0.00 in0.0 mm 0.00 in0.0 mm
04:30 PM 43.4°F6.3°C 36.3°F2.4°C 76% 3.5 mph S5.6 kmh S 11.5 mph18.5 kmh 29.94 in1013.9 mb - 0.00 in0.0 mm 0.00 in0.0 mm
04:40 PM 43.2°F6.2°C 36.5°F2.5°C 77% 3.5 mph S5.6 kmh S 6.9 mph11.1 kmh 29.94 in1013.9 mb - 0.00 in0.0 mm 0.00 in0.0 mm
04:50 PM 42.9°F6.1°C 35.9°F2.2°C 76% 2.3 mph SW3.7 kmh SW 3.5 mph5.6 kmh 29.94 in1013.9 mb - 0.00 in0.0 mm 0.00 in0.0 mm
05:00 PM 42.7°F5.9°C 33.6°F0.9°C 70% 3.5 mph S5.6 kmh S 5.8 mph9.3 kmh 29.94 in1013.9 mb - 0.00 in0.0 mm 0.00 in0.0 mm
05:10 PM 42.9°F6.1°C 32.3°F0.2°C 66% 6.9 mph S11.1 kmh S 10.4 mph16.7 kmh 29.94 in1013.9 mb - 0.00 in0.0 mm 0.00 in0.0 mm
05:20 PM 42.8°F6.0°C 32.2°F0.1°C 66% 3.5 mph SSE5.6 kmh SSE 2.3 mph3.7 kmh 29.94 in1013.9 mb - 0.00 in0.0 mm 0.00 in0.0 mm
05:30 PM 42.5°F5.8°C 32.3°F0.2°C 67% 3.5 mph S5.6 kmh S 5.8 mph9.3 kmh 29.94 in1013.9 mb - 0.00 in0.0 mm 0.00 in0.0 mm
05:40 PM 42.2°F5.7°C 32.8°F0.4°C 69% 3.5 mph SSE5.6 kmh SSE 3.5 mph5.6 kmh 29.94 in1013.9 mb - 0.00 in0.0 mm 0.00 in0.0 mm
05:50 PM 41.8°F5.4°C 32.7°F0.4°C 70% 2.3 mph SW3.7 kmh SW 2.3 mph3.7 kmh 29.93 in1013.5 mb - 0.00 in0.0 mm 0.00 in0.0 mm
06:00 PM 41.5°F5.3°C 32.8°F0.4°C 71% 3.5 mph SSE5.6 kmh SSE 9.2 mph14.8 kmh 29.93 in1013.5 mb - 0.00 in0.0 mm 0.00 in0.0 mm
06:10 PM 41.4°F5.2°C 33.0°F0.6°C 72% 1.2 mph S1.9 kmh S 2.3 mph3.7 kmh 29.93 in1013.5 mb - 0.00 in0.0 mm 0.00 in0.0 mm
06:20 PM 41.3°F5.2°C 33.3°F0.7°C 73% 3.5 mph S5.6 kmh S 3.5 mph5.6 kmh 29.93 in1013.5 mb - 0.00 in0.0 mm 0.00 in0.0 mm
06:30 PM 40.9°F4.9°C 33.2°F0.7°C 74% 1.2 mph SW1.9 kmh SW 3.5 mph5.6 kmh 29.93 in1013.5 mb - 0.00 in0.0 mm 0.00 in0.0 mm
06:40 PM 40.9°F4.9°C 33.6°F0.9°C 75% 3.5 mph S5.6 kmh S 9.2 mph14.8 kmh 29.92 in1013.2 mb - 0.00 in0.0 mm 0.00 in0.0 mm
06:50 PM 41.0°F5.0°C 34.0°F1.1°C 76% 4.6 mph SW7.4 kmh SW 8.1 mph13.0 kmh 29.93 in1013.5 mb - 0.00 in0.0 mm 0.00 in0.0 mm
07:00 PM 40.8°F4.9°C 34.5°F1.4°C 78% 3.5 mph ESE5.6 kmh ESE 3.5 mph5.6 kmh 29.94 in1013.9 mb - 0.00 in0.0 mm 0.00 in0.0 mm
07:10 PM 40.7°F4.8°C 34.4°F1.3°C 78% 3.5 mph S5.6 kmh S 5.8 mph9.3 kmh 29.92 in1013.2 mb - 0.00 in0.0 mm 0.00 in0.0 mm
07:20 PM 40.8°F4.9°C 34.8°F1.6°C 79% 3.5 mph SSE5.6 kmh SSE 3.5 mph5.6 kmh 29.92 in1013.2 mb - 0.00 in0.0 mm 0.00 in0.0 mm
07:30 PM 40.8°F4.9°C 35.1°F1.7°C 80% 2.3 mph SE3.7 kmh SE 2.3 mph3.7 kmh 29.92 in1013.2 mb - 0.00 in0.0 mm 0.00 in0.0 mm
07:40 PM 40.8°F4.9°C 35.1°F1.7°C 80% 2.3 mph SSE3.7 kmh SSE 5.8 mph9.3 kmh 29.92 in1013.2 mb - 0.00 in0.0 mm 0.00 in0.0 mm
07:50 PM 40.3°F4.6°C 35.3°F1.8°C 82% 2.3 mph SSW3.7 kmh SSW 2.3 mph3.7 kmh 29.92 in1013.2 mb - 0.00 in0.0 mm 0.00 in0.0 mm
08:00 PM 40.4°F4.7°C 35.3°F1.8°C 82% 2.3 mph S3.7 kmh S 2.3 mph3.7 kmh 29.92 in1013.2 mb - 0.00 in0.0 mm 0.00 in0.0 mm
08:10 PM 40.5°F4.7°C 35.7°F2.1°C 83% 3.5 mph SE5.6 kmh SE 2.3 mph3.7 kmh 29.92 in1013.2 mb - 0.00 in0.0 mm 0.00 in0.0 mm
08:20 PM 40.5°F4.7°C 35.7°F2.1°C 83% 2.3 mph SSE3.7 kmh SSE 2.3 mph3.7 kmh 29.92 in1013.2 mb - 0.00 in0.0 mm 0.00 in0.0 mm
08:30 PM 40.4°F4.7°C 35.6°F2.0°C 83% 3.5 mph SW5.6 kmh SW 2.3 mph3.7 kmh 29.92 in1013.2 mb - 0.00 in0.0 mm 0.00 in0.0 mm
08:40 PM 40.3°F4.6°C 35.5°F1.9°C 83% 2.3 mph SSW3.7 kmh SSW 2.3 mph3.7 kmh 29.91 in1012.9 mb - 0.00 in0.0 mm 0.00 in0.0 mm
08:50 PM 40.3°F4.6°C 35.5°F1.9°C 83% 2.3 mph WNW3.7 kmh WNW 5.8 mph9.3 kmh 29.91 in1012.9 mb - 0.00 in0.0 mm 0.00 in0.0 mm
09:00 PM 40.3°F4.6°C 35.5°F1.9°C 83% 2.3 mph E3.7 kmh E 5.8 mph9.3 kmh 29.90 in1012.5 mb - 0.00 in0.0 mm 0.00 in0.0 mm
09:10 PM 40.4°F4.7°C 35.3°F1.8°C 82% 3.5 mph S5.6 kmh S 2.3 mph3.7 kmh 29.90 in1012.5 mb - 0.00 in0.0 mm 0.00 in0.0 mm
09:20 PM 40.4°F4.7°C 35.4°F1.9°C 82% 2.3 mph S3.7 kmh S 3.5 mph5.6 kmh 29.90 in1012.5 mb - 0.00 in0.0 mm 0.00 in0.0 mm
09:30 PM 40.4°F4.7°C 35.0°F1.7°C 81% 2.3 mph SE3.7 kmh SE 3.5 mph5.6 kmh 29.90 in1012.5 mb - 0.00 in0.0 mm 0.00 in0.0 mm
09:40 PM 40.4°F4.7°C 34.7°F1.5°C 80% 3.5 mph SSW5.6 kmh SSW 2.3 mph3.7 kmh 29.91 in1012.9 mb - 0.00 in0.0 mm 0.00 in0.0 mm
09:50 PM 40.5°F4.7°C 34.8°F1.6°C 80% 2.3 mph S3.7 kmh S 5.8 mph9.3 kmh 29.91 in1012.9 mb - 0.00 in0.0 mm 0.00 in0.0 mm
10:00 PM 40.3°F4.6°C 34.3°F1.3°C 79% 3.5 mph SSE5.6 kmh SSE 9.2 mph14.8 kmh 29.92 in1013.2 mb - 0.00 in0.0 mm 0.00 in0.0 mm
10:10 PM 40.4°F4.7°C 34.4°F1.3°C 79% 1.2 mph SSW1.9 kmh SSW 2.3 mph3.7 kmh 29.92 in1013.2 mb - 0.00 in0.0 mm 0.00 in0.0 mm
10:20 PM 40.4°F4.7°C 34.1°F1.2°C 78% 2.3 mph SW3.7 kmh SW 6.9 mph11.1 kmh 29.92 in1013.2 mb - 0.00 in0.0 mm 0.00 in0.0 mm
10:30 PM 40.3°F4.6°C 34.0°F1.1°C 78% 3.5 mph SSW5.6 kmh SSW 2.3 mph3.7 kmh 29.92 in1013.2 mb - 0.00 in0.0 mm 0.00 in0.0 mm
10:40 PM 40.2°F4.6°C 33.9°F1.1°C 78% 2.3 mph WSW3.7 kmh WSW 3.5 mph5.6 kmh 29.92 in1013.2 mb - 0.00 in0.0 mm 0.00 in0.0 mm
10:50 PM 40.0°F4.4°C 33.7°F0.9°C 78% 1.2 mph SE1.9 kmh SE 2.3 mph3.7 kmh 29.91 in1012.9 mb - 0.00 in0.0 mm 0.00 in0.0 mm
11:00 PM 39.8°F4.3°C 33.5°F0.8°C 78% Calm Calm 1.2 mph1.9 kmh 29.91 in1012.9 mb - 0.00 in0.0 mm 0.00 in0.0 mm
11:10 PM 39.6°F4.2°C 33.6°F0.9°C 79% 1.2 mph S1.9 kmh S 5.8 mph9.3 kmh 29.91 in1012.9 mb - 0.00 in0.0 mm 0.00 in0.0 mm
11:20 PM 39.4°F4.1°C 33.4°F0.8°C 79% 2.3 mph SE3.7 kmh SE 2.3 mph3.7 kmh 29.92 in1013.2 mb - 0.00 in0.0 mm 0.00 in0.0 mm
11:30 PM 39.3°F4.1°C 33.3°F0.7°C 79% 1.2 mph NNE1.9 kmh NNE 2.3 mph3.7 kmh 29.91 in1012.9 mb - 0.00 in0.0 mm 0.00 in0.0 mm
11:40 PM 39.5°F4.2°C 33.5°F0.8°C 79% 2.3 mph WSW3.7 kmh WSW 2.3 mph3.7 kmh 29.91 in1012.9 mb - 0.00 in0.0 mm 0.00 in0.0 mm
11:50 PM 39.2°F4.0°C 33.5°F0.8°C 80% 1.2 mph SSW1.9 kmh SSW -- 29.91 in1012.9 mb - 0.00 in0.0 mm 0.00 in0.0 mm